createdAt,value
2022-10-19T00:01:53.539Z,80.30
2022-10-19T00:04:20.027Z,80.83
2022-10-19T00:06:46.473Z,80.81
2022-10-19T00:09:15.128Z,80.89
2022-10-19T00:11:43.569Z,80.98
2022-10-19T00:14:15.665Z,81.31
2022-10-19T00:16:43.702Z,81.59
2022-10-19T00:19:14.026Z,81.70
2022-10-19T00:21:40.844Z,81.60
2022-10-19T00:24:07.788Z,81.33
2022-10-19T00:26:34.920Z,81.65
2022-10-19T00:29:01.768Z,81.09
2022-10-19T00:31:29.616Z,81.30
2022-10-19T00:33:57.102Z,80.62
2022-10-19T00:36:26.416Z,79.29
2022-10-19T00:38:54.405Z,79.18
2022-10-19T00:41:22.950Z,79.75
2022-10-19T00:43:55.109Z,80.44
2022-10-19T00:46:22.127Z,80.69
2022-10-19T00:48:52.514Z,80.77
2022-10-19T00:51:18.985Z,80.31
2022-10-19T00:53:45.478Z,80.42
2022-10-19T00:56:15.214Z,80.19
2022-10-19T00:58:43.560Z,79.54
2022-10-19T01:01:14.268Z,79.67
2022-10-19T01:03:40.901Z,80.27
2022-10-19T01:06:09.743Z,80.09
2022-10-19T01:08:36.166Z,80.12
2022-10-19T01:11:18.102Z,80.57
2022-10-19T01:13:58.404Z,80.78
2022-10-19T01:16:34.148Z,81.64
2022-10-19T01:19:21.296Z,81.89
2022-10-19T01:21:58.419Z,82.28
2022-10-19T01:24:51.944Z,81.37
2022-10-19T01:27:37.606Z,81.36
2022-10-19T01:30:16.108Z,81.33
2022-10-19T01:32:52.693Z,81.13
2022-10-19T01:35:26.675Z,81.06
2022-10-19T01:38:04.888Z,80.90
2022-10-19T01:40:41.169Z,81.10
2022-10-19T01:43:13.535Z,81.22
2022-10-19T01:45:47.300Z,81.25
2022-10-19T01:48:17.374Z,81.34
2022-10-19T01:50:50.506Z,81.32
2022-10-19T01:53:19.702Z,81.51
2022-10-19T01:55:51.013Z,81.20
2022-10-19T01:58:21.588Z,81.55
2022-10-19T02:00:52.851Z,81.53
2022-10-19T02:03:20.320Z,81.69
2022-10-19T02:05:48.390Z,81.33
2022-10-19T02:08:20.579Z,81.45
2022-10-19T02:10:47.809Z,81.16
2022-10-19T02:13:16.191Z,80.82
2022-10-19T02:15:46.534Z,80.92
2022-10-19T02:18:17.817Z,80.85
2022-10-19T02:20:44.576Z,79.88
2022-10-19T02:23:13.410Z,79.76
2022-10-19T02:25:39.943Z,78.30
2022-10-19T02:28:06.749Z,78.75
2022-10-19T02:30:33.529Z,78.51
2022-10-19T02:33:00.197Z,78.66
2022-10-19T02:35:28.154Z,78.90
2022-10-19T02:37:57.797Z,78.60
2022-10-19T02:40:25.159Z,78.51
2022-10-19T02:42:56.547Z,78.92
2022-10-19T02:45:28.040Z,78.04
2022-10-19T02:47:59.871Z,78.47
2022-10-19T02:50:28.341Z,78.38
2022-10-19T02:52:54.806Z,78.47
2022-10-19T02:55:21.218Z,78.48
2022-10-19T02:57:47.645Z,78.82
2022-10-19T03:00:14.233Z,79.05
2022-10-19T03:02:40.676Z,78.97
2022-10-19T03:05:08.458Z,78.78
2022-10-19T03:07:36.726Z,79.02
2022-10-19T03:10:04.044Z,78.76
2022-10-19T03:12:30.489Z,78.72
2022-10-19T03:14:56.932Z,78.95
2022-10-19T03:17:23.472Z,78.86
2022-10-19T03:19:49.892Z,78.83
2022-10-19T03:22:16.426Z,79.48
2022-10-19T03:24:44.237Z,79.21
2022-10-19T03:27:10.744Z,78.94
2022-10-19T03:29:37.198Z,79.30
2022-10-19T03:32:04.904Z,78.90
2022-10-19T03:34:31.332Z,79.39
2022-10-19T03:36:57.757Z,79.31
2022-10-19T03:39:24.460Z,79.21
2022-10-19T03:41:52.246Z,78.70
2022-10-19T03:44:18.656Z,78.53
2022-10-19T03:46:45.077Z,78.59
2022-10-19T03:49:11.828Z,78.93
2022-10-19T03:51:38.410Z,78.12
2022-10-19T03:54:06.860Z,77.58
2022-10-19T03:56:34.538Z,77.64
2022-10-19T03:59:04.255Z,77.43
2022-10-19T04:01:33.093Z,77.08
2022-10-19T04:04:01.477Z,77.40
2022-10-19T04:06:30.131Z,77.19
2022-10-19T04:08:57.520Z,77.52
2022-10-19T04:11:25.957Z,77.61
2022-10-19T04:13:53.581Z,77.71
2022-10-19T04:16:23.451Z,78.06
2022-10-19T04:18:50.378Z,77.89
2022-10-19T04:21:21.855Z,77.38
2022-10-19T04:23:48.468Z,77.64
2022-10-19T04:26:15.067Z,77.38
2022-10-19T04:28:41.540Z,77.52
2022-10-19T04:31:08.408Z,77.16
2022-10-19T04:33:36.305Z,76.98
2022-10-19T04:36:06.451Z,77.14
2022-10-19T04:38:33.495Z,77.02
2022-10-19T04:41:01.610Z,77.29
2022-10-19T04:46:55.677Z,77.27
2022-10-19T04:49:23.469Z,77.63
2022-10-19T04:51:49.931Z,77.47
2022-10-19T04:54:16.400Z,77.33
2022-10-19T04:56:42.807Z,77.61
2022-10-19T04:59:10.131Z,77.63
2022-10-19T05:01:36.588Z,77.55
2022-10-19T05:04:03.410Z,78.03
2022-10-19T05:06:31.680Z,77.68
2022-10-19T05:08:58.782Z,78.45
2022-10-19T05:11:26.045Z,78.02
2022-10-19T05:13:52.578Z,78.10
2022-10-19T05:16:22.105Z,78.12
2022-10-19T05:18:49.403Z,78.38
2022-10-19T05:21:17.044Z,78.79
2022-10-19T05:23:45.172Z,78.67
2022-10-19T05:26:14.598Z,78.97
2022-10-19T05:28:41.223Z,79.28
2022-10-19T05:31:09.807Z,79.30
2022-10-19T05:33:37.283Z,79.40
2022-10-19T05:36:12.476Z,79.55
2022-10-19T05:38:39.027Z,79.61
2022-10-19T05:41:06.994Z,79.83
2022-10-19T05:43:33.460Z,79.95
2022-10-19T05:46:03.554Z,80.52
2022-10-19T05:48:29.956Z,80.52
2022-10-19T05:50:56.367Z,80.81
2022-10-19T05:53:22.817Z,81.10
2022-10-19T05:55:49.281Z,81.25
2022-10-19T05:58:17.017Z,81.72
2022-10-19T06:00:43.466Z,81.29
2022-10-19T06:03:09.865Z,81.59
2022-10-19T06:05:36.365Z,81.66
2022-10-19T06:08:02.906Z,81.75
2022-10-19T06:10:29.457Z,82.01
2022-10-19T06:12:55.865Z,81.92
2022-10-19T06:15:23.784Z,81.85
2022-10-19T06:17:50.238Z,81.26
2022-10-19T06:20:16.693Z,81.59
2022-10-19T06:22:43.133Z,81.55
2022-10-19T06:25:09.836Z,81.36
2022-10-19T06:27:36.724Z,81.06
2022-10-19T06:30:04.144Z,81.39
2022-10-19T06:32:31.906Z,81.31
2022-10-19T06:34:58.301Z,81.73
2022-10-19T06:37:24.692Z,81.65
2022-10-19T06:39:51.216Z,81.43
2022-10-19T06:42:17.648Z,81.74
2022-10-19T06:44:44.103Z,81.43
2022-10-19T06:47:10.565Z,80.96
2022-10-19T06:49:38.332Z,80.65
2022-10-19T06:52:05.063Z,80.98
2022-10-19T06:54:31.619Z,80.76
2022-10-19T06:56:58.052Z,80.53
2022-10-19T06:59:24.482Z,80.76
2022-10-19T07:01:50.983Z,80.75
2022-10-19T07:04:17.493Z,80.45
2022-10-19T07:06:45.318Z,80.68
2022-10-19T07:09:11.750Z,80.68
2022-10-19T07:11:41.295Z,80.70
2022-10-19T07:14:12.021Z,80.81
2022-10-19T07:16:38.534Z,80.28
2022-10-19T07:19:04.962Z,79.97
2022-10-19T07:21:31.411Z,80.15
2022-10-19T07:23:59.194Z,80.76
2022-10-19T07:26:26.915Z,80.90
2022-10-19T07:28:56.066Z,80.18
2022-10-19T07:31:24.131Z,80.20
2022-10-19T07:33:52.769Z,79.86
2022-10-19T07:36:19.336Z,79.45
2022-10-19T07:38:45.790Z,79.44
2022-10-19T07:41:15.357Z,78.53
2022-10-19T07:43:43.607Z,78.97
2022-10-19T07:46:12.409Z,78.80
2022-10-19T07:48:38.934Z,79.00
2022-10-19T07:51:07.185Z,78.42
2022-10-19T07:53:33.827Z,77.94
2022-10-19T07:56:03.727Z,77.02
2022-10-19T07:58:31.590Z,77.22
2022-10-19T08:01:00.412Z,77.54
2022-10-19T08:06:15.330Z,76.15
2022-10-19T08:08:42.396Z,76.15
2022-10-19T08:11:10.589Z,76.46
2022-10-19T08:13:39.144Z,76.31
2022-10-19T08:16:06.861Z,75.55
2022-10-19T08:21:02.103Z,74.96
2022-10-19T08:23:28.526Z,75.32
2022-10-19T08:26:00.026Z,75.34
2022-10-19T08:28:26.632Z,74.81
2022-10-19T08:30:54.423Z,74.76
2022-10-19T08:33:20.841Z,75.02
2022-10-19T08:35:47.249Z,75.16
2022-10-19T08:38:13.754Z,74.60
2022-10-19T08:40:40.238Z,74.71
2022-10-19T08:43:14.187Z,74.47
2022-10-19T08:45:43.223Z,74.01
2022-10-19T08:48:25.570Z,73.17
2022-10-19T08:50:53.115Z,74.32
2022-10-19T08:53:25.830Z,73.33
2022-10-19T08:56:07.838Z,73.21
2022-10-19T08:58:48.840Z,73.10
2022-10-19T09:01:25.883Z,72.91
2022-10-19T09:03:59.064Z,73.54
2022-10-19T09:06:31.824Z,73.05
2022-10-19T09:08:59.075Z,72.38
2022-10-19T09:11:30.240Z,71.48
2022-10-19T09:14:06.274Z,72.50
2022-10-19T09:16:33.492Z,72.29
2022-10-19T09:19:01.420Z,71.63
2022-10-19T09:21:42.651Z,71.17
2022-10-19T09:24:26.682Z,71.75
2022-10-19T09:30:22.970Z,70.48
2022-10-19T09:32:53.683Z,69.45
2022-10-19T09:35:28.156Z,69.94
2022-10-19T09:37:55.612Z,69.02
2022-10-19T09:40:24.627Z,68.71
2022-10-19T09:42:51.329Z,69.57
2022-10-19T09:45:24.990Z,70.21
2022-10-19T09:47:53.117Z,68.54
2022-10-19T09:50:22.722Z,68.58
2022-10-19T09:52:52.051Z,68.68
2022-10-19T09:55:29.162Z,69.65
2022-10-19T09:58:03.013Z,69.17
2022-10-19T10:00:37.254Z,69.80
2022-10-19T10:03:04.699Z,69.26
2022-10-19T10:05:34.488Z,69.00
2022-10-19T10:08:01.446Z,68.80
2022-10-19T10:10:30.708Z,69.38
2022-10-19T10:12:58.418Z,68.70
2022-10-19T10:15:28.269Z,68.98
2022-10-19T10:17:56.760Z,68.71
2022-10-19T10:20:26.287Z,67.87
2022-10-19T10:22:57.087Z,67.54
2022-10-19T10:25:30.054Z,65.67
2022-10-19T10:27:59.762Z,64.83
2022-10-19T10:30:29.165Z,65.12
2022-10-19T10:33:04.611Z,63.51
2022-10-19T10:35:47.738Z,64.95
2022-10-19T10:38:19.795Z,64.96
2022-10-19T10:40:51.061Z,65.21
2022-10-19T10:43:20.772Z,65.23
2022-10-19T10:45:49.621Z,66.03
2022-10-19T10:48:28.095Z,65.05
2022-10-19T10:50:55.068Z,65.17
2022-10-19T10:53:41.836Z,66.21
2022-10-19T10:56:22.373Z,66.74
2022-10-19T10:58:53.668Z,65.80
2022-10-19T11:01:22.968Z,61.65
2022-10-19T11:03:55.589Z,61.83
2022-10-19T11:06:25.420Z,62.39
2022-10-19T11:09:03.016Z,61.89
2022-10-19T11:11:35.083Z,60.89
2022-10-19T11:14:22.035Z,61.17
2022-10-19T11:16:51.932Z,59.42
2022-10-19T11:19:22.017Z,60.12
2022-10-19T11:21:55.856Z,60.39
2022-10-19T11:24:35.754Z,60.21
2022-10-19T11:27:14.574Z,58.73
2022-10-19T11:29:57.315Z,59.38
2022-10-19T11:32:32.789Z,58.51
2022-10-19T11:35:14.970Z,57.12
2022-10-19T11:38:17.385Z,58.84
2022-10-19T11:40:59.680Z,56.47
2022-10-19T11:43:38.029Z,53.70
2022-10-19T11:46:15.628Z,53.41
2022-10-19T11:49:00.432Z,52.66
2022-10-19T11:51:35.459Z,53.87
2022-10-19T11:54:16.647Z,53.17
2022-10-19T11:57:09.375Z,53.54
2022-10-19T11:59:51.226Z,54.56
2022-10-19T12:02:42.202Z,55.15
2022-10-19T12:05:12.981Z,56.24
2022-10-19T12:07:51.230Z,54.97
2022-10-19T12:10:26.030Z,54.23
2022-10-19T12:12:58.138Z,54.59
2022-10-19T12:15:30.164Z,55.38
2022-10-19T12:18:02.383Z,55.60
2022-10-19T12:20:35.024Z,54.68
2022-10-19T12:23:16.293Z,55.95
2022-10-19T12:25:45.218Z,55.44
2022-10-19T12:28:22.268Z,56.84
2022-10-19T12:30:49.417Z,56.84
2022-10-19T12:33:21.926Z,56.55
2022-10-19T12:35:59.113Z,54.98
2022-10-19T12:38:37.829Z,55.75
2022-10-19T12:41:18.357Z,55.38
2022-10-19T12:43:59.228Z,56.01
2022-10-19T12:46:36.739Z,55.54
2022-10-19T12:49:34.822Z,55.04
2022-10-19T12:52:02.049Z,54.04
2022-10-19T12:54:31.565Z,53.70
2022-10-19T12:57:00.850Z,53.03
2022-10-19T12:59:30.907Z,53.33
2022-10-19T13:01:58.594Z,53.60
2022-10-19T13:04:27.680Z,54.25
2022-10-19T13:07:01.349Z,55.39
2022-10-19T13:09:31.890Z,54.00
2022-10-19T13:12:42.898Z,54.67
2022-10-19T13:15:56.122Z,53.27
2022-10-19T13:18:59.477Z,53.75
2022-10-19T13:21:47.390Z,52.90
2022-10-19T13:24:27.133Z,52.80
2022-10-19T13:27:27.970Z,52.46
2022-10-19T13:29:55.471Z,50.72
2022-10-19T13:32:37.191Z,50.58
2022-10-19T13:35:29.209Z,50.68
2022-10-19T13:38:11.541Z,51.17
2022-10-19T13:40:55.493Z,49.98
2022-10-19T13:43:25.480Z,50.59
2022-10-19T13:45:54.606Z,50.40
2022-10-19T13:48:27.922Z,50.01
2022-10-19T13:51:03.065Z,51.02
2022-10-19T13:53:43.578Z,50.71
2022-10-19T13:56:45.577Z,51.78
2022-10-19T13:59:37.102Z,52.53
2022-10-19T14:02:46.033Z,52.44
2022-10-19T14:05:32.769Z,52.79
2022-10-19T14:08:11.788Z,53.50
2022-10-19T14:13:27.828Z,53.61
2022-10-19T14:15:57.879Z,54.57
2022-10-19T14:18:26.757Z,55.27
2022-10-19T14:20:58.957Z,55.17
2022-10-19T14:23:27.571Z,55.78
2022-10-19T14:25:57.159Z,55.63
2022-10-19T14:28:24.323Z,56.74
2022-10-19T14:30:59.563Z,57.04
2022-10-19T14:33:28.193Z,58.45
2022-10-19T14:35:55.423Z,59.22
2022-10-19T14:38:32.152Z,60.52
2022-10-19T14:40:58.649Z,61.14
2022-10-19T14:43:27.771Z,62.09
2022-10-19T14:46:17.500Z,62.18
2022-10-19T14:48:45.856Z,62.57
2022-10-19T14:51:29.759Z,63.83
2022-10-19T14:54:03.083Z,64.22
2022-10-19T14:56:33.425Z,64.16
2022-10-19T14:59:03.063Z,64.49
2022-10-19T15:01:29.624Z,64.07
2022-10-19T15:03:56.770Z,63.41
2022-10-19T15:06:25.862Z,63.29
2022-10-19T15:08:55.132Z,59.96
2022-10-19T15:11:26.905Z,57.99
2022-10-19T15:14:00.363Z,56.60
2022-10-19T15:16:31.327Z,56.87
2022-10-19T15:19:02.831Z,56.52
2022-10-19T15:21:31.469Z,56.48
2022-10-19T15:24:07.918Z,56.57
2022-10-19T15:26:36.110Z,56.66
2022-10-19T15:29:10.723Z,56.28
2022-10-19T15:31:37.455Z,57.01
2022-10-19T15:34:04.506Z,57.67
2022-10-19T15:36:32.197Z,59.53
2022-10-19T15:39:18.226Z,61.31
2022-10-19T15:41:52.310Z,62.39
2022-10-19T15:44:33.456Z,62.92
2022-10-19T15:47:19.715Z,63.30
2022-10-19T15:49:53.112Z,63.30
2022-10-19T15:52:21.275Z,64.27
2022-10-19T15:54:48.261Z,64.79
2022-10-19T15:57:34.036Z,65.02
2022-10-19T16:00:06.728Z,65.30
2022-10-19T16:02:33.314Z,64.87
2022-10-19T16:05:00.325Z,64.75
2022-10-19T16:07:29.201Z,65.21
2022-10-19T16:09:55.984Z,65.55
2022-10-19T16:12:23.423Z,65.67
2022-10-19T16:14:51.405Z,66.00
2022-10-19T16:17:18.095Z,66.13
2022-10-19T16:19:45.195Z,66.57
2022-10-19T16:22:13.340Z,66.68
2022-10-19T16:24:40.659Z,66.36
2022-10-19T16:27:08.302Z,67.36
2022-10-19T16:29:35.194Z,67.56
2022-10-19T16:32:03.560Z,67.63
2022-10-19T16:34:30.233Z,67.83
2022-10-19T16:36:56.819Z,67.89
2022-10-19T16:39:23.511Z,68.86
2022-10-19T16:41:50.173Z,68.86
2022-10-19T16:44:16.967Z,68.81
2022-10-19T16:46:43.531Z,68.94
2022-10-19T16:49:11.542Z,68.69
2022-10-19T16:51:39.272Z,69.00
2022-10-19T16:54:08.053Z,69.12
2022-10-19T16:56:35.482Z,69.29
2022-10-19T16:59:04.521Z,69.54
2022-10-19T17:01:32.191Z,70.12
2022-10-19T17:03:59.566Z,70.39
2022-10-19T17:06:28.469Z,70.26
2022-10-19T17:11:43.203Z,70.37
2022-10-19T17:14:12.538Z,70.27
2022-10-19T17:16:40.080Z,70.96
2022-10-19T17:19:08.104Z,70.95
2022-10-19T17:21:38.663Z,70.72
2022-10-19T17:24:07.116Z,70.74
2022-10-19T17:26:35.506Z,71.14
2022-10-19T17:29:02.382Z,71.58
2022-10-19T17:31:29.503Z,71.50
2022-10-19T17:33:56.206Z,71.77
2022-10-19T17:36:25.380Z,71.97
2022-10-19T17:38:54.346Z,72.20
2022-10-19T17:41:21.590Z,72.47
2022-10-19T17:43:49.650Z,72.19
2022-10-19T17:46:17.476Z,72.59
2022-10-19T17:48:45.029Z,72.62
2022-10-19T17:51:14.300Z,72.33
2022-10-19T17:53:40.889Z,72.34
2022-10-19T17:56:11.194Z,72.20
2022-10-19T17:58:39.857Z,72.80
2022-10-19T18:01:07.588Z,72.55
2022-10-19T18:03:35.637Z,73.07
2022-10-19T18:06:08.262Z,73.44
2022-10-19T18:08:39.449Z,73.07
2022-10-19T18:11:07.750Z,73.23
2022-10-19T18:16:07.015Z,74.07
2022-10-19T18:18:35.369Z,73.60
2022-10-19T18:21:05.158Z,73.29
2022-10-19T18:23:31.717Z,73.68
2022-10-19T18:26:00.976Z,73.94
2022-10-19T18:28:29.594Z,73.79
2022-10-19T18:31:04.647Z,73.96
2022-10-19T18:33:32.544Z,73.91
2022-10-19T18:35:59.341Z,73.47
2022-10-19T18:38:26.076Z,74.00
2022-10-19T18:40:52.869Z,73.70
2022-10-19T18:43:19.468Z,73.51
2022-10-19T18:45:51.368Z,74.16
2022-10-19T18:48:19.661Z,74.01
2022-10-19T18:50:46.496Z,74.01
2022-10-19T18:53:13.134Z,73.86
2022-10-19T18:55:39.950Z,74.07
2022-10-19T18:58:06.596Z,73.76
2022-10-19T19:00:33.297Z,73.40
2022-10-19T19:02:59.933Z,73.95
2022-10-19T19:05:28.228Z,73.91
2022-10-19T19:07:55.012Z,74.51
2022-10-19T19:10:21.712Z,73.92
2022-10-19T19:12:49.777Z,74.04
2022-10-19T19:15:17.732Z,73.91
2022-10-19T19:17:44.900Z,74.31
2022-10-19T19:20:11.597Z,74.77
2022-10-19T19:22:39.555Z,75.01
2022-10-19T19:25:06.806Z,74.99
2022-10-19T19:27:33.451Z,74.74
2022-10-19T19:30:00.232Z,74.10
2022-10-19T19:32:26.841Z,74.06
2022-10-19T19:34:54.835Z,74.77
2022-10-19T19:37:21.788Z,74.99
2022-10-19T19:39:49.930Z,74.70
2022-10-19T19:42:16.526Z,74.97
2022-10-19T19:44:43.272Z,74.89
2022-10-19T19:47:09.926Z,75.11
2022-10-19T19:49:36.564Z,75.45
2022-10-19T19:52:03.238Z,75.60
2022-10-19T19:54:29.905Z,75.09
2022-10-19T19:56:57.879Z,74.72
2022-10-19T19:59:24.537Z,75.16
2022-10-19T20:01:51.186Z,75.14
2022-10-19T20:04:17.712Z,75.19
2022-10-19T20:06:44.236Z,75.28
2022-10-19T20:09:11.261Z,74.68
2022-10-19T20:11:42.040Z,74.47
2022-10-19T20:14:10.906Z,74.56
2022-10-19T20:16:37.432Z,75.00
2022-10-19T20:19:07.453Z,75.14
2022-10-19T20:21:34.926Z,74.87
2022-10-19T20:24:01.463Z,74.71
2022-10-19T20:26:28.339Z,74.55
2022-10-19T20:28:55.769Z,74.90
2022-10-19T20:31:24.065Z,74.49
2022-10-19T20:33:50.960Z,74.70
2022-10-19T20:36:19.037Z,75.05
2022-10-19T20:38:47.442Z,75.67
2022-10-19T20:41:13.954Z,75.95
2022-10-19T20:43:40.578Z,75.90
2022-10-19T20:46:11.084Z,75.56
2022-10-19T20:48:39.489Z,75.29
2022-10-19T20:51:10.686Z,74.98
2022-10-19T20:53:37.232Z,74.72
2022-10-19T20:56:04.770Z,74.83
2022-10-19T20:58:31.280Z,75.15
2022-10-19T21:01:04.559Z,75.49
2022-10-19T21:03:31.079Z,75.34
2022-10-19T21:06:02.302Z,75.11
2022-10-19T21:08:29.381Z,75.54
2022-10-19T21:10:55.924Z,75.68
2022-10-19T21:13:22.436Z,75.42
2022-10-19T21:15:48.950Z,75.21
2022-10-19T21:18:15.426Z,75.90
2022-10-19T21:20:41.976Z,75.53
2022-10-19T21:23:09.967Z,75.69
2022-10-19T21:25:36.533Z,75.98
2022-10-19T21:28:03.054Z,76.41
2022-10-19T21:30:29.661Z,76.23
2022-10-19T21:32:56.167Z,75.62
2022-10-19T21:35:22.653Z,75.72
2022-10-19T21:37:49.163Z,75.71
2022-10-19T21:40:17.040Z,75.60
2022-10-19T21:42:43.560Z,75.56
2022-10-19T21:45:29.325Z,75.72
2022-10-19T21:47:57.031Z,75.88
2022-10-19T21:50:23.639Z,75.79
2022-10-19T21:52:50.236Z,75.75
2022-10-19T21:55:18.152Z,75.69
2022-10-19T21:57:45.878Z,75.67
2022-10-19T22:00:13.382Z,75.57
2022-10-19T22:02:39.901Z,75.82
2022-10-19T22:05:06.937Z,75.70
2022-10-19T22:07:33.704Z,75.79
2022-10-19T22:10:00.383Z,75.86
2022-10-19T22:12:28.275Z,75.77
2022-10-19T22:14:54.816Z,75.44
2022-10-19T22:17:21.465Z,75.42
2022-10-19T22:19:49.491Z,75.69
2022-10-19T22:22:15.985Z,75.40
2022-10-19T22:24:42.502Z,75.23
2022-10-19T22:27:09.009Z,75.13
2022-10-19T22:29:36.916Z,75.10
2022-10-19T22:32:03.615Z,75.14
2022-10-19T22:34:30.131Z,75.17
2022-10-19T22:36:56.704Z,75.22
2022-10-19T22:39:26.944Z,75.01
2022-10-19T22:41:54.535Z,75.24
2022-10-19T22:44:21.050Z,75.42
2022-10-19T22:46:48.884Z,75.26
2022-10-19T22:49:15.417Z,75.23
2022-10-19T22:51:42.014Z,75.48
2022-10-19T22:54:08.607Z,75.07
2022-10-19T22:56:35.329Z,75.13
2022-10-19T22:59:03.815Z,75.53
2022-10-19T23:01:30.688Z,75.08
2022-10-19T23:03:58.595Z,75.16
2022-10-19T23:06:25.530Z,74.89
2022-10-19T23:08:52.330Z,75.34
2022-10-19T23:11:19.205Z,75.04
2022-10-19T23:13:45.854Z,75.14
2022-10-19T23:16:12.462Z,75.25
2022-10-19T23:18:40.773Z,75.57
2022-10-19T23:21:11.340Z,75.84
2022-10-19T23:23:38.752Z,75.89
2022-10-19T23:26:07.653Z,76.15
2022-10-19T23:28:36.117Z,75.95
2022-10-19T23:31:04.731Z,76.31
2022-10-19T23:33:31.842Z,76.89
2022-10-19T23:36:01.914Z,76.75
2022-10-19T23:38:29.736Z,76.86
2022-10-19T23:40:56.223Z,76.62
2022-10-19T23:43:22.820Z,76.99
2022-10-19T23:45:49.376Z,77.20
2022-10-19T23:48:15.907Z,76.65
2022-10-19T23:50:42.389Z,76.39
2022-10-19T23:53:08.895Z,76.65
2022-10-19T23:55:36.747Z,76.87
2022-10-19T23:58:03.647Z,77.00
